createdAt,value
2023-05-17T00:00:28.733Z,2.05
2023-05-17T00:03:30.191Z,1.65
2023-05-17T00:06:31.869Z,1.85
2023-05-17T00:09:33.302Z,2.10
2023-05-17T00:12:34.768Z,1.73
2023-05-17T00:15:36.124Z,1.60
2023-05-17T00:18:38.851Z,1.92
2023-05-17T00:21:40.422Z,2.35
2023-05-17T00:24:41.874Z,2.10
2023-05-17T00:27:43.232Z,1.70
2023-05-17T00:30:44.535Z,1.83
2023-05-17T00:33:47.542Z,2.15
2023-05-17T00:36:48.866Z,2.40
2023-05-17T00:39:50.219Z,1.85
2023-05-17T00:42:51.696Z,1.70
2023-05-17T00:45:53.076Z,1.52
2023-05-17T00:48:54.647Z,1.55
2023-05-17T00:51:56.152Z,1.65
2023-05-17T00:54:57.788Z,2.10
2023-05-17T00:57:59.462Z,2.40
2023-05-17T01:01:01.802Z,1.67
2023-05-17T01:04:03.233Z,2.50
2023-05-17T01:07:04.749Z,1.77
2023-05-17T01:10:06.837Z,1.75
2023-05-17T01:13:31.524Z,2.22
2023-05-17T01:16:35.970Z,2.00
2023-05-17T01:19:49.936Z,1.95
2023-05-17T01:22:53.676Z,1.58
2023-05-17T01:26:13.513Z,1.65
2023-05-17T01:29:16.223Z,2.00
2023-05-17T01:32:17.795Z,2.10
2023-05-17T01:35:19.130Z,1.70
2023-05-17T01:38:20.590Z,1.70
2023-05-17T01:41:21.914Z,1.80
2023-05-17T01:44:24.711Z,2.55
2023-05-17T01:47:43.241Z,3.00
2023-05-17T01:53:53.248Z,1.70
2023-05-17T01:56:57.405Z,2.70
2023-05-17T01:59:59.962Z,2.15
2023-05-17T02:03:01.338Z,1.90
2023-05-17T02:06:05.724Z,2.72
2023-05-17T02:09:07.264Z,2.20
2023-05-17T02:12:09.199Z,2.03
2023-05-17T02:15:11.991Z,1.95
2023-05-17T02:18:13.448Z,2.20
2023-05-17T02:21:14.866Z,3.10
2023-05-17T02:24:16.234Z,2.40
2023-05-17T02:27:17.582Z,2.03
2023-05-17T02:30:22.109Z,2.45
2023-05-17T02:33:23.615Z,2.13
2023-05-17T02:36:25.062Z,2.78
2023-05-17T02:39:26.536Z,2.25
2023-05-17T02:42:27.892Z,2.30
2023-05-17T02:45:30.621Z,2.40
2023-05-17T02:48:32.104Z,2.58
2023-05-17T02:51:33.416Z,2.75
2023-05-17T02:54:34.835Z,2.10
2023-05-17T02:57:36.276Z,2.70
2023-05-17T03:00:37.646Z,2.80
2023-05-17T03:03:39.144Z,2.45
2023-05-17T03:06:40.770Z,2.90
2023-05-17T03:09:42.904Z,3.28
2023-05-17T03:12:44.766Z,2.50
2023-05-17T03:15:46.086Z,2.00
2023-05-17T03:18:47.618Z,2.60
2023-05-17T03:21:49.196Z,2.70
2023-05-17T03:24:50.635Z,2.08
2023-05-17T03:27:52.006Z,1.85
2023-05-17T03:30:53.856Z,2.08
2023-05-17T03:33:55.290Z,2.53
2023-05-17T03:36:56.789Z,2.42
2023-05-17T03:39:58.128Z,2.30
2023-05-17T03:42:59.429Z,1.95
2023-05-17T03:46:00.969Z,2.28
2023-05-17T03:49:02.450Z,2.50
2023-05-17T03:52:04.002Z,2.10
2023-05-17T03:55:05.913Z,2.33
2023-05-17T03:58:07.581Z,2.38
2023-05-17T04:01:09.009Z,2.58
2023-05-17T04:04:11.136Z,2.30
2023-05-17T04:07:12.529Z,2.15
2023-05-17T04:10:13.963Z,2.28
2023-05-17T04:13:15.289Z,2.10
2023-05-17T04:16:16.621Z,1.88
2023-05-17T04:19:18.133Z,2.85
2023-05-17T04:22:22.815Z,2.33
2023-05-17T04:25:24.882Z,2.22
2023-05-17T04:28:26.992Z,1.77
2023-05-17T04:31:28.670Z,2.28
2023-05-17T04:34:31.858Z,2.72
2023-05-17T04:37:33.163Z,2.00
2023-05-17T04:40:34.898Z,3.17
2023-05-17T04:43:36.805Z,2.28
2023-05-17T04:46:38.162Z,2.10
2023-05-17T04:49:39.566Z,2.60
2023-05-17T04:52:41.174Z,2.72
2023-05-17T04:55:42.485Z,2.40
2023-05-17T04:58:43.889Z,2.20
2023-05-17T05:01:45.555Z,2.30
2023-05-17T05:04:47.058Z,2.65
2023-05-17T05:07:48.482Z,2.97
2023-05-17T05:10:51.395Z,2.15
2023-05-17T05:13:52.765Z,2.95
2023-05-17T05:16:55.713Z,2.13
2023-05-17T05:19:57.256Z,2.85
2023-05-17T05:22:58.934Z,3.92
2023-05-17T05:26:00.240Z,2.78
2023-05-17T05:29:01.610Z,3.00
2023-05-17T05:32:02.962Z,2.88
2023-05-17T05:35:05.797Z,2.65
2023-05-17T05:38:07.683Z,2.80
2023-05-17T05:41:09.123Z,2.72
2023-05-17T05:44:10.573Z,3.03
2023-05-17T05:47:11.964Z,2.92
2023-05-17T05:50:13.309Z,2.33
2023-05-17T05:53:19.312Z,2.20
2023-05-17T05:56:21.351Z,3.40
2023-05-17T05:59:22.708Z,2.80
2023-05-17T06:02:24.695Z,2.15
2023-05-17T06:05:26.227Z,2.72
2023-05-17T06:08:27.652Z,2.63
2023-05-17T06:11:28.938Z,3.13
2023-05-17T06:14:30.513Z,2.50
2023-05-17T06:17:31.876Z,2.58
2023-05-17T06:20:33.397Z,2.95
2023-05-17T06:23:34.721Z,2.42
2023-05-17T06:26:36.063Z,2.50
2023-05-17T06:29:37.463Z,2.85
2023-05-17T06:32:38.826Z,1.95
2023-05-17T06:35:54.939Z,2.58
2023-05-17T06:38:57.878Z,2.92
2023-05-17T06:41:59.329Z,2.70
2023-05-17T06:45:00.905Z,2.70
2023-05-17T06:48:02.317Z,1.95
2023-05-17T06:51:03.650Z,2.58
2023-05-17T06:54:05.038Z,2.40
2023-05-17T06:57:06.477Z,2.85
2023-05-17T07:00:10.923Z,2.95
2023-05-17T07:03:12.490Z,2.15
2023-05-17T07:06:13.954Z,2.05
2023-05-17T07:09:15.361Z,3.00
2023-05-17T07:12:16.667Z,2.08
2023-05-17T07:15:18.133Z,2.88
2023-05-17T07:18:19.527Z,2.65
2023-05-17T07:21:21.013Z,2.88
2023-05-17T07:24:22.826Z,2.22
2023-05-17T07:27:24.265Z,2.15
2023-05-17T07:30:25.688Z,2.25
2023-05-17T07:33:27.291Z,2.83
2023-05-17T07:36:30.843Z,3.25
2023-05-17T07:39:32.345Z,2.47
2023-05-17T07:42:33.760Z,2.03
2023-05-17T07:45:36.318Z,2.45
2023-05-17T07:48:37.853Z,2.25
2023-05-17T07:51:39.659Z,3.00
2023-05-17T07:54:41.194Z,3.33
2023-05-17T07:57:42.518Z,2.40
2023-05-17T08:00:43.890Z,2.42
2023-05-17T08:03:48.306Z,1.90
2023-05-17T08:06:50.219Z,2.25
2023-05-17T08:09:51.694Z,2.08
2023-05-17T08:12:53.472Z,1.98
2023-05-17T08:16:01.690Z,1.88
2023-05-17T08:19:15.088Z,2.20
2023-05-17T08:22:16.640Z,1.77
2023-05-17T08:25:19.437Z,2.30
2023-05-17T08:28:20.830Z,2.03
2023-05-17T08:31:22.172Z,2.30
2023-05-17T08:34:23.618Z,2.72
2023-05-17T08:37:25.102Z,3.08
2023-05-17T08:40:27.728Z,2.83
2023-05-17T08:43:31.135Z,1.95
2023-05-17T08:46:32.869Z,1.92
2023-05-17T08:49:34.515Z,1.73
2023-05-17T08:52:36.188Z,1.83
2023-05-17T08:55:37.641Z,1.80
2023-05-17T08:58:52.320Z,1.70
2023-05-17T09:01:56.678Z,1.50
2023-05-17T09:04:58.432Z,1.60
2023-05-17T09:08:00.386Z,1.80
2023-05-17T09:11:01.764Z,1.42
2023-05-17T09:14:04.796Z,2.30
2023-05-17T09:17:06.910Z,1.70
2023-05-17T09:20:08.686Z,1.98
2023-05-17T09:23:13.136Z,1.67
2023-05-17T09:26:14.488Z,1.77
2023-05-17T09:29:16.171Z,1.52
2023-05-17T09:32:18.540Z,1.60
2023-05-17T09:35:20.052Z,1.67
2023-05-17T09:38:25.508Z,1.83
2023-05-17T09:41:30.685Z,1.63
2023-05-17T09:44:32.409Z,1.58
2023-05-17T09:47:37.445Z,2.53
2023-05-17T09:50:43.364Z,1.77
2023-05-17T09:53:44.755Z,1.50
2023-05-17T09:56:52.961Z,1.58
2023-05-17T09:59:55.940Z,2.00
2023-05-17T10:02:58.472Z,1.83
2023-05-17T10:06:01.395Z,1.77
2023-05-17T10:09:03.608Z,1.65
2023-05-17T10:12:05.969Z,1.90
2023-05-17T10:15:08.421Z,1.73
2023-05-17T10:18:10.421Z,1.83
2023-05-17T10:21:12.754Z,2.30
2023-05-17T10:24:14.340Z,1.70
2023-05-17T10:27:16.290Z,1.83
2023-05-17T10:30:18.809Z,2.05
2023-05-17T10:33:20.689Z,1.77
2023-05-17T10:36:23.601Z,2.38
2023-05-17T10:39:25.252Z,1.67
2023-05-17T10:42:27.406Z,1.85
2023-05-17T10:45:29.159Z,1.90
2023-05-17T10:48:33.711Z,1.73
2023-05-17T10:51:37.848Z,1.60
2023-05-17T10:54:40.872Z,1.48
2023-05-17T10:57:50.945Z,2.40
2023-05-17T11:00:55.919Z,1.83
2023-05-17T11:03:57.933Z,1.80
2023-05-17T11:07:17.679Z,1.77
2023-05-17T11:10:19.079Z,1.70
2023-05-17T11:13:26.254Z,1.65
2023-05-17T11:16:28.578Z,1.70
2023-05-17T11:19:30.182Z,1.80
2023-05-17T11:22:37.246Z,1.50
2023-05-17T11:25:38.965Z,2.10
2023-05-17T11:28:40.483Z,1.73
2023-05-17T11:31:46.452Z,1.80
2023-05-17T11:34:52.196Z,1.60
2023-05-17T11:37:54.163Z,2.13
2023-05-17T11:40:56.004Z,1.95
2023-05-17T11:43:58.071Z,2.17
2023-05-17T11:47:06.378Z,1.92
2023-05-17T11:50:07.921Z,1.83
2023-05-17T11:53:10.068Z,1.75
2023-05-17T11:56:11.650Z,1.90
2023-05-17T11:59:18.622Z,1.67
2023-05-17T12:02:26.839Z,1.70
2023-05-17T12:05:28.219Z,1.70
2023-05-17T12:08:31.308Z,2.15
2023-05-17T12:11:32.687Z,2.28
2023-05-17T12:14:34.440Z,2.13
2023-05-17T12:17:37.578Z,1.60
2023-05-17T12:20:39.409Z,2.13
2023-05-17T12:23:43.440Z,2.20
2023-05-17T12:26:48.180Z,2.10
2023-05-17T12:29:49.582Z,1.88
2023-05-17T12:32:51.251Z,1.85
2023-05-17T12:35:52.958Z,1.85
2023-05-17T12:38:55.814Z,1.95
2023-05-17T12:41:57.512Z,1.70
2023-05-17T12:44:59.481Z,1.75
2023-05-17T12:48:00.941Z,2.20
2023-05-17T12:51:11.135Z,1.80
2023-05-17T12:54:14.060Z,2.20
2023-05-17T12:57:18.454Z,1.67
2023-05-17T13:00:20.427Z,1.70
2023-05-17T13:03:21.837Z,2.20
2023-05-17T13:06:23.444Z,1.98
2023-05-17T13:09:25.740Z,1.80
2023-05-17T13:12:27.192Z,1.58
2023-05-17T13:15:29.349Z,1.85
2023-05-17T13:18:35.430Z,1.80
2023-05-17T13:21:36.949Z,1.85
2023-05-17T13:24:39.730Z,1.90
2023-05-17T13:27:48.359Z,2.10
2023-05-17T13:30:52.032Z,1.83
2023-05-17T13:33:53.589Z,2.03
2023-05-17T13:36:57.155Z,1.65
2023-05-17T13:39:58.591Z,1.70
2023-05-17T13:42:59.976Z,1.73
2023-05-17T13:46:01.679Z,1.98
2023-05-17T13:49:04.606Z,1.85
2023-05-17T13:55:10.427Z,1.92
2023-05-17T13:58:11.907Z,1.77
2023-05-17T14:01:13.311Z,1.85
2023-05-17T14:04:14.703Z,2.00
2023-05-17T14:07:16.105Z,1.77
2023-05-17T14:10:17.496Z,1.92
2023-05-17T14:13:18.970Z,1.98
2023-05-17T14:16:22.153Z,1.83
2023-05-17T14:19:23.547Z,1.90
2023-05-17T14:22:24.986Z,2.10
2023-05-17T14:25:26.535Z,1.80
2023-05-17T14:28:27.840Z,1.48
2023-05-17T14:31:30.160Z,2.13
2023-05-17T14:34:31.466Z,1.75
2023-05-17T14:37:32.783Z,1.70
2023-05-17T14:40:34.115Z,1.63
2023-05-17T14:43:35.426Z,1.70
2023-05-17T14:46:36.816Z,1.75
2023-05-17T14:49:38.126Z,1.60
2023-05-17T14:52:39.733Z,1.42
2023-05-17T14:55:41.962Z,1.60
2023-05-17T14:58:43.480Z,1.38
2023-05-17T15:01:44.802Z,1.50
2023-05-17T15:04:46.380Z,1.40
2023-05-17T15:07:48.299Z,1.70
2023-05-17T15:10:50.390Z,1.33
2023-05-17T15:13:51.756Z,2.05
2023-05-17T15:16:53.119Z,1.23
2023-05-17T15:19:54.690Z,1.30
2023-05-17T15:22:56.682Z,1.70
2023-05-17T15:25:58.054Z,1.73
2023-05-17T15:28:59.348Z,1.35
2023-05-17T15:32:00.807Z,1.30
2023-05-17T15:35:02.131Z,1.27
2023-05-17T15:38:05.573Z,1.67
2023-05-17T15:41:08.209Z,1.13
2023-05-17T15:44:09.517Z,1.50
2023-05-17T15:47:11.371Z,1.20
2023-05-17T15:50:12.907Z,1.70
2023-05-17T15:53:14.830Z,2.00
2023-05-17T15:56:20.095Z,1.25
2023-05-17T15:59:21.512Z,1.30
2023-05-17T16:02:24.656Z,1.52
2023-05-17T16:05:26.477Z,1.70
2023-05-17T16:08:27.761Z,1.40
2023-05-17T16:11:29.082Z,1.80
2023-05-17T16:14:30.483Z,1.50
2023-05-17T16:17:31.813Z,1.70
2023-05-17T16:20:33.792Z,1.73
2023-05-17T16:23:35.132Z,1.52
2023-05-17T16:26:38.321Z,1.60
2023-05-17T16:29:39.809Z,1.65
2023-05-17T16:32:41.877Z,1.50
2023-05-17T16:35:43.513Z,1.48
2023-05-17T16:38:44.868Z,1.45
2023-05-17T16:41:46.212Z,1.85
2023-05-17T16:44:47.658Z,1.83
2023-05-17T16:47:49.043Z,1.65
2023-05-17T16:50:50.487Z,1.40
2023-05-17T16:53:51.800Z,1.90
2023-05-17T16:56:53.176Z,2.80
2023-05-17T16:59:55.255Z,1.70
2023-05-17T17:02:57.823Z,2.40
2023-05-17T17:05:59.235Z,1.73
2023-05-17T17:09:01.537Z,2.17
2023-05-17T17:12:09.470Z,1.70
2023-05-17T17:15:11.356Z,1.70
2023-05-17T17:18:12.842Z,1.40
2023-05-17T17:21:14.604Z,1.70
2023-05-17T17:24:15.949Z,1.52
2023-05-17T17:27:17.254Z,1.50
2023-05-17T17:30:18.556Z,1.50
2023-05-17T17:33:20.046Z,2.20
2023-05-17T17:36:21.474Z,2.13
2023-05-17T17:39:22.850Z,1.95
2023-05-17T17:42:24.184Z,2.30
2023-05-17T17:45:25.588Z,2.25
2023-05-17T17:48:27.011Z,1.63
2023-05-17T17:51:28.366Z,1.77
2023-05-17T17:54:29.683Z,2.10
2023-05-17T17:57:32.067Z,3.50
2023-05-17T18:00:33.521Z,2.28
2023-05-17T18:03:35.507Z,2.47
2023-05-17T18:06:36.926Z,1.65
2023-05-17T18:09:38.255Z,1.85
2023-05-17T18:12:39.856Z,2.40
2023-05-17T18:15:41.494Z,2.40
2023-05-17T18:18:42.922Z,2.50
2023-05-17T18:21:44.534Z,3.30
2023-05-17T18:24:45.906Z,2.80
2023-05-17T18:27:47.214Z,2.42
2023-05-17T18:30:48.520Z,3.08
2023-05-17T18:33:49.812Z,1.88
2023-05-17T18:36:51.148Z,1.73
2023-05-17T18:39:54.007Z,2.40
2023-05-17T18:42:55.340Z,2.13
2023-05-17T18:45:56.683Z,2.80
2023-05-17T18:48:58.012Z,2.40
2023-05-17T18:51:59.353Z,2.45
2023-05-17T18:55:00.822Z,5.90
2023-05-17T18:58:02.260Z,6.22
2023-05-17T19:01:03.703Z,4.10
2023-05-17T19:04:05.143Z,5.80
2023-05-17T19:07:06.570Z,13.25
2023-05-17T19:10:08.152Z,6.13
2023-05-17T19:13:09.558Z,10.32
2023-05-17T19:16:11.109Z,8.80
2023-05-17T19:19:12.504Z,7.03
2023-05-17T19:22:14.356Z,4.10
2023-05-17T19:25:16.853Z,6.10
2023-05-17T19:28:19.388Z,7.00
2023-05-17T19:31:20.840Z,5.75
2023-05-17T19:34:22.264Z,9.30
2023-05-17T19:37:23.635Z,6.32
2023-05-17T19:40:24.937Z,4.45
2023-05-17T19:43:27.138Z,9.50
2023-05-17T19:46:28.537Z,5.68
2023-05-17T19:49:30.025Z,5.30
2023-05-17T19:52:31.422Z,3.33
2023-05-17T19:55:34.214Z,4.45
2023-05-17T19:58:35.750Z,4.00
2023-05-17T20:01:37.142Z,7.50
2023-05-17T20:04:38.498Z,2.75
2023-05-17T20:07:39.898Z,2.10
2023-05-17T20:10:41.264Z,2.95
2023-05-17T20:13:42.610Z,6.72
2023-05-17T20:16:44.118Z,7.25
2023-05-17T20:19:45.526Z,3.63
2023-05-17T20:22:46.943Z,1.65
2023-05-17T20:25:48.357Z,4.90
2023-05-17T20:28:49.739Z,3.83
2023-05-17T20:31:51.177Z,4.20
2023-05-17T20:34:52.689Z,5.50
2023-05-17T20:37:53.991Z,3.30
2023-05-17T20:40:55.555Z,2.35
2023-05-17T20:43:56.935Z,7.85
2023-05-17T20:46:58.335Z,2.10
2023-05-17T20:49:59.805Z,4.53
2023-05-17T20:53:01.204Z,4.40
2023-05-17T20:56:02.800Z,5.68
2023-05-17T20:59:04.330Z,10.60
2023-05-17T21:02:06.931Z,4.53
2023-05-17T21:05:09.107Z,4.35
2023-05-17T21:08:12.787Z,8.90
2023-05-17T21:11:18.976Z,10.85
2023-05-17T21:14:20.316Z,3.70
2023-05-17T21:17:21.631Z,10.30
2023-05-17T21:20:24.684Z,4.95
2023-05-17T21:23:26.364Z,6.65
2023-05-17T21:29:29.190Z,3.58
2023-05-17T21:32:30.603Z,4.00
2023-05-17T21:35:31.986Z,2.90
2023-05-17T21:38:33.340Z,2.47
2023-05-17T21:41:34.673Z,3.10
2023-05-17T21:44:36.116Z,4.43
2023-05-17T21:47:37.566Z,5.80
2023-05-17T21:50:39.006Z,4.22
2023-05-17T21:53:40.404Z,2.20
2023-05-17T21:56:41.733Z,6.15
2023-05-17T21:59:43.032Z,2.63
2023-05-17T22:02:45.267Z,8.80
2023-05-17T22:05:47.357Z,3.10
2023-05-17T22:08:48.816Z,4.15
2023-05-17T22:11:50.150Z,2.13
2023-05-17T22:14:53.649Z,2.25
2023-05-17T22:17:55.028Z,1.83
2023-05-17T22:20:59.196Z,1.77
2023-05-17T22:24:00.871Z,1.88
2023-05-17T22:27:03.158Z,1.88
2023-05-17T22:30:04.797Z,3.03
2023-05-17T22:33:06.484Z,1.73
2023-05-17T22:36:13.841Z,1.77
2023-05-17T22:39:15.202Z,2.10
2023-05-17T22:42:16.601Z,1.73
2023-05-17T22:45:18.182Z,2.10
2023-05-17T22:48:22.535Z,2.00
2023-05-17T22:51:24.128Z,1.85
2023-05-17T22:54:26.824Z,1.77
2023-05-17T22:57:28.185Z,1.80
2023-05-17T23:00:29.513Z,2.97
2023-05-17T23:03:31.095Z,1.95
2023-05-17T23:06:34.305Z,2.25
2023-05-17T23:09:38.012Z,1.80
2023-05-17T23:12:39.436Z,2.08
2023-05-17T23:15:46.121Z,3.30
2023-05-17T23:18:47.555Z,2.10
2023-05-17T23:21:49.023Z,1.90
2023-05-17T23:24:50.518Z,1.77
2023-05-17T23:27:52.068Z,1.85
2023-05-17T23:30:54.434Z,1.88
2023-05-17T23:33:55.967Z,2.03
2023-05-17T23:36:57.303Z,1.73
2023-05-17T23:39:58.900Z,2.13
2023-05-17T23:43:00.876Z,2.42
2023-05-17T23:46:03.336Z,2.22
2023-05-17T23:49:04.820Z,2.40
2023-05-17T23:52:11.231Z,2.00
2023-05-17T23:55:12.937Z,2.55
2023-05-17T23:58:14.214Z,2.03
